Pancake, Texas
Current Conditions -  °F | °C
As of 10:35 AM on Saturday 22 Nov 2014 (Local Time) from KGOP Reporting Station
Overcast Overcast  
Wind Chill: 66°   Ceiling: 800
Heat Index: 66°   Visibility: 9mi
Dew Point: 63°   Wind: 8mph
Humidity: 88%   Direction: 150°SSE
Pressure: 30.01"   Gusts: NA
Location:  31.5973°N, 97.7586°W
Report Text: KGOP 221635Z AUTO 15007KT 9SM OVC008 19/17 A3001 RMK AO2 LTG DSNT S-NW PWINO
Loading
Personal Weather Stations






























Interactive Weather Map New forecast layout! Learn more

10-Day Weather Forecast

Advertisements
Track Severe Weather on mobile